Time;durP1;ratioP1;P1;durP2;ratioP2;P2;SDS_P1;SDS_P2;PMS_P1;PMS_P2;Temp;Humidity;BMP_temperature;BMP_pressure;BME280_temperature;BME280_humidity;BME280_pressure;Samples;Min_cycle;Max_cycle;Signal;HPM_P1;HPM_P2
2022/01/15 00:02:14;;;;;;;21.08;7.07;;;;;;;3.34;97.60;102649.28;6061604;28;20037;-74
2022/01/15 00:05:10;;;;;;;22.95;8.32;;;;;;;3.37;97.84;102643.13;6069075;28;20808;-74
2022/01/15 00:08:06;;;;;;;25.70;8.52;;;;;;;3.40;97.90;102638.59;6070040;28;20069;-73
2022/01/15 00:11:01;;;;;;;23.30;9.13;;;;;;;3.23;97.61;102643.59;6066699;28;20565;-74
2022/01/15 00:14:09;;;;;;;20.90;7.80;;;;;;;3.38;98.52;102644.81;6055203;28;20342;-74
2022/01/15 00:17:07;;;;;;;27.92;10.38;;;;;;;3.47;98.35;102634.88;6073250;28;20508;-74
2022/01/15 00:20:05;;;;;;;25.65;8.45;;;;;;;3.41;98.16;102645.56;6070480;28;20481;-74
2022/01/15 00:23:01;;;;;;;20.90;8.15;;;;;;;3.40;98.00;102641.22;6064641;28;20045;-74
2022/01/15 00:25:56;;;;;;;27.70;9.48;;;;;;;3.35;97.81;102640.53;6069603;28;20034;-74
2022/01/15 00:28:51;;;;;;;25.67;8.03;;;;;;;3.36;97.95;102638.78;6072948;28;20038;-74
2022/01/15 00:31:47;;;;;;;25.07;9.20;;;;;;;3.47;97.42;102634.00;6072521;28;20094;-74
2022/01/15 00:34:42;;;;;;;21.73;8.13;;;;;;;3.44;97.53;102634.13;6064699;28;20440;-74
2022/01/15 00:37:37;;;;;;;22.57;7.47;;;;;;;3.53;97.62;102639.88;6073174;28;20472;-74
2022/01/15 00:40:33;;;;;;;23.07;8.60;;;;;;;3.50;97.89;102639.16;6072309;28;20041;-75
2022/01/15 00:43:28;;;;;;;25.40;8.73;;;;;;;3.54;97.81;102632.88;6072897;28;20534;-74
2022/01/15 00:46:23;;;;;;;22.57;8.80;;;;;;;3.57;98.22;102635.41;6072355;28;20132;-74
2022/01/15 00:49:19;;;;;;;20.13;8.33;;;;;;;3.46;98.02;102630.53;6070953;28;20401;-74
2022/01/15 00:52:14;;;;;;;24.17;8.00;;;;;;;3.54;98.32;102636.38;6068911;28;20488;-74
2022/01/15 00:55:12;;;;;;;26.97;8.93;;;;;;;3.48;97.27;102631.31;6069027;28;20049;-74
2022/01/15 00:58:07;;;;;;;25.63;8.15;;;;;;;3.47;98.00;102634.00;6066996;28;20033;-74
2022/01/15 01:01:02;;;;;;;20.87;8.07;;;;;;;3.47;97.82;102629.63;6060564;28;20045;-74
2022/01/15 01:03:58;;;;;;;22.83;8.20;;;;;;;3.57;97.77;102623.16;6072997;28;20065;-74
2022/01/15 01:06:53;;;;;;;28.93;11.50;;;;;;;3.56;97.77;102626.66;6070447;28;20120;-74
2022/01/15 01:10:04;;;;;;;26.67;9.13;;;;;;;3.59;97.96;102621.31;6071651;28;20033;-74
2022/01/15 01:25:34;;;;;;;26.17;10.07;;;;;;;3.53;97.90;102605.78;6067896;28;20488;-74
2022/01/15 01:28:37;;;;;;;28.58;10.40;;;;;;;3.61;98.04;102611.63;6073301;28;20037;-73
2022/01/15 01:31:39;;;;;;;31.75;10.35;;;;;;;3.76;97.73;102607.59;6072139;28;20091;-74
2022/01/15 01:34:37;;;;;;;29.83;10.25;;;;;;;3.71;98.11;102609.53;6072676;28;20034;-74
2022/01/15 01:37:38;;;;;;;28.95;10.73;;;;;;;3.59;97.96;102602.09;6057655;28;20038;-74
2022/01/15 01:40:41;;;;;;;31.77;12.23;;;;;;;3.59;98.09;102597.72;6061931;28;20030;-73
2022/01/15 01:46:39;;;;;;;44.67;12.80;;;;;;;3.80;98.11;102601.34;6072007;28;20044;-74
2022/01/15 01:49:34;;;;;;;27.20;9.88;;;;;;;3.92;98.46;102600.00;6064612;28;20057;-74
2022/01/15 01:52:30;;;;;;;33.03;11.37;;;;;;;3.94;98.32;102601.66;6072206;28;20546;-74
2022/01/15 01:55:26;;;;;;;30.65;10.60;;;;;;;4.02;97.71;102593.53;6066382;28;20048;-74
2022/01/15 01:58:22;;;;;;;41.90;12.93;;;;;;;4.05;98.64;102598.66;6072103;28;20488;-74
2022/01/15 02:01:17;;;;;;;38.13;12.67;;;;;;;4.06;98.27;102592.47;6071904;28;20054;-73
2022/01/15 02:04:12;;;;;;;31.13;10.38;;;;;;;4.08;98.53;102602.00;6071339;28;20064;-74
2022/01/15 02:07:08;;;;;;;32.63;12.37;;;;;;;3.98;97.66;102592.78;6059381;28;20052;-74
2022/01/15 02:10:05;;;;;;;35.90;12.30;;;;;;;4.02;97.96;102585.66;6070321;28;20065;-74
2022/01/15 02:13:01;;;;;;;31.60;12.77;;;;;;;4.11;98.34;102587.91;6067049;28;20126;-74
2022/01/15 02:15:58;;;;;;;29.88;11.52;;;;;;;4.13;97.90;102578.22;6072873;28;20637;-74
2022/01/15 02:18:54;;;;;;;48.42;13.60;;;;;;;4.12;97.99;102582.63;6071329;28;20021;-74
2022/01/15 02:24:44;;;;;;;38.53;12.93;;;;;;;4.16;98.63;102578.06;6075787;28;20065;-74
2022/01/15 02:27:40;;;;;;;38.05;13.85;;;;;;;4.20;98.63;102580.53;6076845;28;20420;-74
2022/01/15 02:30:35;;;;;;;50.87;16.03;;;;;;;4.13;98.29;102565.94;6072793;28;20451;-75
2022/01/15 02:33:31;;;;;;;47.30;14.45;;;;;;;4.13;98.46;102554.59;6072254;28;20079;-74
2022/01/15 02:36:32;;;;;;;36.00;13.38;;;;;;;4.19;98.19;102562.22;6065887;28;20091;-74
2022/01/15 02:39:27;;;;;;;44.28;14.00;;;;;;;4.13;98.17;102558.06;6075863;28;20029;-74
2022/01/15 02:42:23;;;;;;;36.53;12.87;;;;;;;4.10;98.55;102565.22;6076152;28;20447;-73
2022/01/15 02:45:22;;;;;;;40.28;13.25;;;;;;;4.08;98.37;102559.16;6059304;28;20352;-74
2022/01/15 02:48:18;;;;;;;39.70;13.52;;;;;;;4.13;99.04;102557.22;6068111;28;20033;-74
2022/01/15 02:51:14;;;;;;;39.13;12.82;;;;;;;4.08;98.94;102549.50;6064041;28;20063;-74
2022/01/15 02:54:10;;;;;;;34.75;12.50;;;;;;;4.17;98.91;102540.41;6067332;28;20388;-74
2022/01/15 02:57:06;;;;;;;29.90;11.90;;;;;;;4.15;98.56;102539.63;6062446;28;20042;-74
2022/01/15 03:00:03;;;;;;;37.42;12.70;;;;;;;4.12;98.01;102539.75;6073514;28;20106;-74
2022/01/15 03:02:58;;;;;;;40.33;13.32;;;;;;;4.07;98.74;102544.31;6066839;28;20037;-74
2022/01/15 03:05:54;;;;;;;39.23;12.33;;;;;;;4.06;98.26;102535.59;6061587;28;20044;-74
2022/01/15 03:08:51;;;;;;;37.23;12.20;;;;;;;4.08;98.31;102535.53;6079006;28;20029;-74
2022/01/15 03:11:46;;;;;;;39.75;13.23;;;;;;;4.13;98.50;102530.97;6065751;28;20040;-74
2022/01/15 03:14:44;;;;;;;34.97;12.77;;;;;;;4.15;98.42;102540.50;6073741;28;20041;-74
2022/01/15 03:17:39;;;;;;;37.85;11.90;;;;;;;4.25;98.77;102535.72;6074927;28;20053;-74
2022/01/15 03:20:35;;;;;;;37.73;12.90;;;;;;;4.23;99.17;102532.31;6071161;28;20033;-74
2022/01/15 03:23:30;;;;;;;37.53;13.13;;;;;;;4.18;98.54;102536.91;6075192;28;20026;-74
2022/01/15 03:26:25;;;;;;;34.73;11.93;;;;;;;4.24;98.14;102536.63;6074625;28;20377;-74
2022/01/15 03:29:21;;;;;;;43.87;12.93;;;;;;;4.25;98.49;102533.09;6074741;28;20045;-74
2022/01/15 03:32:17;;;;;;;39.30;13.70;;;;;;;4.31;98.78;102524.97;6073372;28;20307;-74
2022/01/15 03:35:13;;;;;;;41.45;13.30;;;;;;;4.32;98.27;102521.41;6071089;28;20551;-74
2022/01/15 03:38:09;;;;;;;39.90;13.82;;;;;;;4.30;98.81;102522.41;6075408;28;20029;-74
2022/01/15 03:41:04;;;;;;;30.60;11.25;;;;;;;4.30;99.06;102519.78;6073493;28;20510;-73
2022/01/15 03:44:00;;;;;;;37.40;12.65;;;;;;;4.32;99.35;102520.59;6070894;28;20029;-74
2022/01/15 03:46:55;;;;;;;34.60;12.47;;;;;;;4.22;98.37;102517.47;6074524;28;20033;-74
2022/01/15 03:49:50;;;;;;;39.87;12.13;;;;;;;4.23;98.69;102521.81;6074283;28;20036;-74
2022/01/15 03:52:46;;;;;;;41.92;12.73;;;;;;;4.22;98.93;102518.31;6063246;28;20034;-74
2022/01/15 03:55:41;;;;;;;38.97;11.90;;;;;;;4.25;98.25;102516.47;6073369;28;20480;-73
2022/01/15 03:58:37;;;;;;;39.53;13.80;;;;;;;4.10;98.20;102505.66;6073769;28;20140;-74
2022/01/15 04:01:32;;;;;;;33.37;11.27;;;;;;;4.10;98.79;102494.34;6073847;28;20070;-74
2022/01/15 04:04:27;;;;;;;40.77;12.77;;;;;;;4.01;98.72;102495.56;6062798;28;20315;-73
2022/01/15 04:07:22;;;;;;;43.90;12.37;;;;;;;3.98;98.08;102495.66;6073514;28;20707;-74
2022/01/15 04:10:18;;;;;;;45.43;12.63;;;;;;;3.98;98.83;102502.69;6072811;28;20049;-74
2022/01/15 04:13:15;;;;;;;49.58;13.13;;;;;;;3.98;97.91;102495.66;6073868;28;20025;-74
2022/01/15 04:16:11;;;;;;;42.35;13.50;;;;;;;4.06;98.85;102497.97;6073712;28;20125;-74
2022/01/15 04:19:07;;;;;;;40.35;12.65;;;;;;;4.12;98.63;102489.88;6070860;28;20037;-74
2022/01/15 04:22:03;;;;;;;42.92;13.30;;;;;;;4.03;99.12;102487.59;6066734;28;20469;-74
2022/01/15 04:24:58;;;;;;;36.70;13.15;;;;;;;4.02;98.58;102484.13;6072680;28;20120;-74
2022/01/15 04:27:57;;;;;;;45.80;13.27;;;;;;;4.01;98.88;102494.69;6074358;28;20044;-74
2022/01/15 04:30:52;;;;;;;44.88;14.25;;;;;;;3.98;98.42;102500.06;6072859;28;20048;-74
2022/01/15 04:33:47;;;;;;;45.37;13.13;;;;;;;3.94;98.42;102499.31;6073224;28;20417;-74
2022/01/15 04:36:43;;;;;;;41.20;13.33;;;;;;;3.97;98.17;102496.56;6063594;28;20068;-74
2022/01/15 04:39:39;;;;;;;36.25;11.55;;;;;;;4.06;99.34;102497.97;6054449;28;20036;-74
2022/01/15 04:42:35;;;;;;;42.38;12.43;;;;;;;4.06;98.71;102492.75;6071276;28;20030;-74
2022/01/15 04:45:30;;;;;;;46.70;14.90;;;;;;;4.06;98.56;102492.75;6063631;28;20076;-73
2022/01/15 04:48:26;;;;;;;67.60;14.23;;;;;;;4.01;98.91;102485.06;6070498;28;20039;-74
2022/01/15 04:51:21;;;;;;;43.40;12.47;;;;;;;4.13;98.56;102499.47;6052023;28;20025;-74
2022/01/15 04:54:17;;;;;;;42.23;12.70;;;;;;;4.07;98.90;102489.22;6067211;28;20041;-73
2022/01/15 04:57:12;;;;;;;42.20;13.30;;;;;;;4.01;99.03;102490.31;6073433;28;20492;-74
2022/01/15 05:00:11;;;;;;;50.37;12.10;;;;;;;3.96;98.99;102494.03;6072416;28;20037;-74
2022/01/15 05:03:06;;;;;;;51.00;12.35;;;;;;;4.00;98.76;102500.84;6073713;28;20026;-74
2022/01/15 05:06:01;;;;;;;44.50;13.17;;;;;;;3.98;98.86;102500.91;6071160;28;20033;-74
2022/01/15 05:09:04;;;;;;;48.80;14.85;;;;;;;4.00;99.27;102499.09;6071900;28;20025;-74
2022/01/15 05:12:05;;;;;;;49.15;13.10;;;;;;;3.94;99.09;102499.31;6059797;28;20041;-74
2022/01/15 05:15:00;;;;;;;49.28;13.20;;;;;;;4.01;98.78;102502.56;6070392;28;20037;-74
2022/01/15 05:17:56;;;;;;;41.93;12.97;;;;;;;4.05;98.45;102505.00;6067441;28;20052;-74
2022/01/15 05:20:51;;;;;;;50.23;13.43;;;;;;;3.96;98.32;102491.41;6072223;28;20729;-74
2022/01/15 05:23:46;;;;;;;39.47;11.80;;;;;;;3.99;98.83;102496.53;6069263;28;20276;-74
2022/01/15 05:26:42;;;;;;;45.97;13.43;;;;;;;4.04;98.98;102500.69;6073234;28;20064;-74
2022/01/15 05:29:37;;;;;;;37.27;11.30;;;;;;;4.05;98.76;102498.91;6070701;28;20124;-73
2022/01/15 05:32:33;;;;;;;38.53;12.47;;;;;;;4.01;98.72;102500.81;6072337;28;20026;-74
2022/01/15 05:35:28;;;;;;;39.10;12.50;;;;;;;4.01;98.52;102495.56;6069561;28;20041;-74
2022/01/15 05:38:24;;;;;;;40.43;12.70;;;;;;;4.02;98.49;102499.88;6071885;28;20038;-73
2022/01/15 05:41:19;;;;;;;46.27;12.30;;;;;;;3.96;98.92;102496.66;6072357;28;20041;-74
2022/01/15 05:44:14;;;;;;;47.37;13.73;;;;;;;3.94;99.04;102494.06;6069039;28;20056;-74
2022/01/15 05:47:10;;;;;;;44.47;13.10;;;;;;;3.97;98.31;102493.09;6072749;28;20038;-74
2022/01/15 05:50:06;;;;;;;36.03;13.48;;;;;;;3.98;98.68;102507.94;6058847;28;20284;-74
2022/01/15 05:53:01;;;;;;;45.13;13.35;;;;;;;3.96;98.15;102507.16;6071484;28;20029;-74
2022/01/15 05:55:56;;;;;;;40.27;11.47;;;;;;;3.95;99.30;102500.19;6073936;28;20030;-74
2022/01/15 05:58:52;;;;;;;46.53;13.37;;;;;;;4.02;98.78;102504.28;6077150;28;20025;-73
2022/01/15 06:01:47;;;;;;;48.23;13.40;;;;;;;3.94;98.60;102493.25;6076988;28;20038;-73
2022/01/15 06:04:42;;;;;;;43.75;13.38;;;;;;;3.92;99.21;102495.91;6075835;28;20049;-74
2022/01/15 06:07:38;;;;;;;45.00;13.53;;;;;;;3.97;98.44;102495.72;6077524;28;20155;-74
2022/01/15 06:10:34;;;;;;;44.10;13.50;;;;;;;4.03;99.23;102495.47;6075925;28;20396;-74
2022/01/15 06:13:30;;;;;;;46.78;13.15;;;;;;;3.95;98.19;102484.44;6076501;28;20068;-74
2022/01/15 06:16:25;;;;;;;46.40;13.82;;;;;;;3.91;98.40;102482.84;6069139;28;20037;-74
2022/01/15 06:19:20;;;;;;;46.43;11.83;;;;;;;3.90;98.61;102483.75;6070255;28;20045;-74
2022/01/15 06:22:15;;;;;;;48.23;12.40;;;;;;;3.96;99.06;102481.75;6076132;28;20380;-74
2022/01/15 06:25:11;;;;;;;46.70;12.53;;;;;;;3.99;98.96;102475.53;6074623;28;20041;-74
2022/01/15 06:28:06;;;;;;;40.90;12.02;;;;;;;3.95;98.68;102489.69;6076644;28;20392;-74
2022/01/15 06:31:02;;;;;;;38.23;11.20;;;;;;;4.03;98.51;102487.59;6074256;28;20111;-73
2022/01/15 06:33:58;;;;;;;40.57;12.23;;;;;;;4.04;98.35;102486.69;6072729;28;20107;-74
2022/01/15 06:36:53;;;;;;;42.70;13.02;;;;;;;4.02;98.84;102475.41;6076584;28;20287;-74
2022/01/15 06:39:49;;;;;;;55.80;14.37;;;;;;;3.90;99.21;102483.75;6075330;28;20029;-74
2022/01/15 06:42:44;;;;;;;45.07;13.73;;;;;;;3.95;99.14;102489.69;6075864;28;20499;-74
2022/01/15 06:45:39;;;;;;;40.90;12.47;;;;;;;4.02;98.67;102483.28;6073970;28;20053;-74
2022/01/15 06:48:35;;;;;;;42.17;11.03;;;;;;;3.93;98.54;102486.25;6073380;28;20096;-74
2022/01/15 06:51:30;;;;;;;36.40;11.82;;;;;;;3.96;98.28;102486.16;6073064;28;20033;-74
2022/01/15 06:54:25;;;;;;;33.60;11.17;;;;;;;3.96;98.15;102494.03;6057261;28;20029;-74
2022/01/15 06:57:21;;;;;;;37.40;11.67;;;;;;;3.90;98.13;102499.50;6076515;28;20443;-73
2022/01/15 07:00:16;;;;;;;39.37;12.20;;;;;;;3.88;99.06;102499.56;6075222;28;20041;-73
2022/01/15 07:03:12;;;;;;;34.80;11.48;;;;;;;3.91;98.96;102496.84;6075574;28;20041;-73
2022/01/15 07:06:07;;;;;;;50.40;12.97;;;;;;;3.89;99.04;102500.41;6065246;28;20475;-73
2022/01/15 07:09:03;;;;;;;42.03;12.27;;;;;;;3.89;98.63;102500.41;6074223;28;20061;-73
2022/01/15 07:11:58;;;;;;;38.35;12.68;;;;;;;3.90;98.67;102507.38;6075598;28;20037;-74
2022/01/15 07:14:53;;;;;;;42.97;11.40;;;;;;;3.91;98.78;102504.72;6075105;28;20041;-73
2022/01/15 07:17:49;;;;;;;36.00;12.13;;;;;;;3.94;99.15;102504.56;6073530;28;22053;-73
2022/01/15 07:20:45;;;;;;;46.10;12.57;;;;;;;3.87;98.52;102492.59;6073093;28;20064;-73
2022/01/15 07:23:40;;;;;;;45.85;12.02;;;;;;;3.82;98.06;102488.44;6070604;28;20045;-74
2022/01/15 07:26:35;;;;;;;43.83;12.00;;;;;;;3.79;98.41;102493.81;6062138;28;20401;-73
2022/01/15 07:29:31;;;;;;;42.77;12.10;;;;;;;3.85;98.71;102494.44;6074094;28;20369;-73
2022/01/15 07:32:26;;;;;;;42.42;13.50;;;;;;;3.84;98.89;102504.97;6073777;28;20456;-73
2022/01/15 07:35:21;;;;;;;41.57;12.40;;;;;;;3.82;99.32;102491.06;6071356;28;20041;-73
2022/01/15 07:38:17;;;;;;;36.57;11.47;;;;;;;3.92;98.28;102497.66;6073877;28;20041;-73
2022/01/15 07:41:13;;;;;;;44.47;12.00;;;;;;;3.92;98.60;102490.66;6066954;28;20120;-73
2022/01/15 07:44:09;;;;;;;45.80;12.23;;;;;;;3.92;98.33;102493.28;6074758;28;20072;-73
2022/01/15 07:47:05;;;;;;;41.22;11.88;;;;;;;4.03;98.93;102490.22;6074966;28;20463;-73
2022/01/15 07:50:01;;;;;;;35.75;11.73;;;;;;;4.00;99.08;102488.59;6069567;28;20033;-73
2022/01/15 07:52:57;;;;;;;37.35;12.20;;;;;;;3.93;98.85;102486.25;6073676;28;20029;-73
2022/01/15 07:55:53;;;;;;;42.50;11.85;;;;;;;3.91;98.75;102488.09;6062130;28;20034;-73
2022/01/15 07:58:48;;;;;;;40.33;11.63;;;;;;;3.95;99.19;102492.31;6069201;28;20060;-73
2022/01/15 08:01:43;;;;;;;38.87;11.93;;;;;;;3.92;98.25;102495.91;6062125;28;20113;-73
2022/01/15 08:04:40;;;;;;;35.37;10.27;;;;;;;3.95;98.90;102495.78;6064013;28;20272;-73
2022/01/15 08:07:35;;;;;;;30.17;9.65;;;;;;;3.98;98.41;102489.56;6069043;28;20033;-73
2022/01/15 08:10:30;;;;;;;34.65;11.07;;;;;;;4.05;98.34;102496.28;6071930;28;20413;-73
2022/01/15 08:13:26;;;;;;;44.20;10.60;;;;;;;4.13;99.14;102491.59;6070891;28;20618;-73
2022/01/15 08:16:21;;;;;;;43.60;12.45;;;;;;;4.11;98.28;102488.16;6073239;28;20540;-73
2022/01/15 08:19:17;;;;;;;38.53;11.27;;;;;;;3.91;98.39;102485.47;6060287;28;20048;-73
2022/01/15 08:22:12;;;;;;;33.77;12.03;;;;;;;4.02;98.26;102480.66;6072183;28;20116;-73
2022/01/15 08:25:08;;;;;;;39.90;12.17;;;;;;;4.06;98.49;102487.50;6072452;28;20048;-73
2022/01/15 08:28:03;;;;;;;37.90;11.50;;;;;;;4.05;98.76;102475.31;6071397;28;20108;-73
2022/01/15 08:30:59;;;;;;;36.63;11.97;;;;;;;4.13;98.14;102478.47;6054102;28;20041;-74
2022/01/15 08:33:54;;;;;;;33.38;10.65;;;;;;;4.11;98.76;102475.88;6065357;28;20116;-74
2022/01/15 08:36:50;;;;;;;38.07;11.80;;;;;;;4.18;98.46;102481.75;6068796;28;20038;-73
2022/01/15 08:39:45;;;;;;;41.60;12.00;;;;;;;4.01;98.69;102474.56;6073591;28;20300;-73
2022/01/15 08:42:41;;;;;;;37.57;11.27;;;;;;;4.06;98.77;102477.00;6073345;28;20116;-73
2022/01/15 08:45:38;;;;;;;33.30;10.70;;;;;;;4.15;98.04;102455.63;6073811;28;20299;-73
2022/01/15 08:48:34;;;;;;;32.78;11.35;;;;;;;4.01;98.19;102476.31;6074044;28;20111;-73
2022/01/15 08:51:29;;;;;;;34.15;10.65;;;;;;;4.09;98.35;102475.09;6070288;28;20037;-73
2022/01/15 08:54:24;;;;;;;37.57;12.50;;;;;;;4.09;98.11;102474.25;6073020;28;20033;-73
2022/01/15 08:57:20;;;;;;;41.37;11.80;;;;;;;4.00;97.54;102474.59;6072172;28;20279;-73
2022/01/15 09:00:18;;;;;;;39.90;12.00;;;;;;;4.25;98.40;102477.97;6072673;28;20075;-73
2022/01/15 09:03:13;;;;;;;39.72;12.50;;;;;;;4.31;98.68;102475.09;6072766;28;20102;-73
2022/01/15 09:06:09;;;;;;;29.42;11.32;;;;;;;4.29;98.74;102478.69;6070928;28;20499;-74
2022/01/15 09:09:04;;;;;;;41.88;12.40;;;;;;;4.07;98.10;102478.72;6073481;28;20128;-73
2022/01/15 09:12:00;;;;;;;43.00;13.47;;;;;;;4.25;98.79;102477.09;6071904;28;20087;-73
2022/01/15 09:14:58;;;;;;;39.70;11.83;;;;;;;4.33;98.03;102475.00;6063734;28;20030;-73
2022/01/15 09:17:54;;;;;;;32.83;10.85;;;;;;;4.56;98.31;102485.44;6064812;28;20030;-74
2022/01/15 09:20:49;;;;;;;35.77;10.10;;;;;;;4.60;98.57;102479.97;6072199;28;20040;-73
2022/01/15 09:23:45;;;;;;;38.55;11.52;;;;;;;4.74;98.56;102487.28;6063998;28;20284;-73
2022/01/15 09:32:55;;;;;;;28.75;9.35;;;;;;;4.91;97.38;102489.19;6076194;28;20128;-74
2022/01/15 09:35:51;;;;;;;29.25;10.40;;;;;;;5.01;97.44;102493.13;6065871;28;20504;-74
2022/01/15 09:38:46;;;;;;;25.13;10.33;;;;;;;5.12;97.27;102478.59;6073146;28;20068;-74
2022/01/15 09:41:45;;;;;;;30.08;11.05;;;;;;;4.71;97.03;102477.75;6062112;28;20038;-73
2022/01/15 09:44:41;;;;;;;32.83;10.93;;;;;;;4.79;97.00;102475.66;6076282;28;20029;-73
2022/01/15 09:47:37;;;;;;;35.47;10.47;;;;;;;4.94;96.45;102471.53;6053230;28;20389;-74
2022/01/15 09:50:42;;;;;;;32.35;10.90;;;;;;;5.10;95.67;102476.97;6061469;28;20359;-74
2022/01/15 09:53:38;;;;;;;27.73;10.30;;;;;;;5.25;96.00;102468.38;6067346;28;20512;-73
2022/01/15 09:56:33;;;;;;;28.35;10.13;;;;;;;4.98;94.68;102469.59;6077726;28;20042;-73
2022/01/15 09:59:29;;;;;;;34.22;10.75;;;;;;;4.97;95.04;102473.16;6075423;28;20463;-74
2022/01/15 10:02:24;;;;;;;29.43;10.07;;;;;;;5.04;94.37;102474.59;6076224;28;20403;-73
2022/01/15 10:05:20;;;;;;;33.50;10.47;;;;;;;5.24;94.46;102469.31;6065828;28;20392;-74
2022/01/15 10:08:19;;;;;;;26.50;10.20;;;;;;;5.11;94.12;102469.00;6074220;28;20046;-74
2022/01/15 10:11:41;;;;;;;25.02;9.70;;;;;;;5.24;94.29;102466.69;6076538;28;20049;-74
2022/01/15 10:14:41;;;;;;;30.65;10.45;;;;;;;5.43;93.20;102457.03;6072118;28;20042;-74
2022/01/15 10:17:38;;;;;;;30.35;10.80;;;;;;;5.68;93.08;102462.03;6069653;28;20052;-74
2022/01/15 10:20:34;;;;;;;35.33;10.95;;;;;;;5.41;91.27;102448.34;6075252;28;20033;-74
2022/01/15 10:23:30;;;;;;;29.25;10.07;;;;;;;5.14;91.56;102444.34;6076049;28;20029;-74
2022/01/15 10:26:27;;;;;;;30.57;10.60;;;;;;;5.35;92.19;102438.94;6073505;28;20446;-74
2022/01/15 10:29:23;;;;;;;32.13;10.20;;;;;;;5.32;91.85;102435.63;6074317;28;20802;-74
2022/01/15 10:32:18;;;;;;;27.10;10.00;;;;;;;5.38;91.30;102438.00;6074406;28;20053;-73
2022/01/15 10:35:16;;;;;;;35.15;10.65;;;;;;;5.31;92.31;102441.81;6070843;28;20480;-74
2022/01/15 10:38:17;;;;;;;34.45;10.68;;;;;;;5.43;91.42;102436.81;6072821;28;20061;-74
2022/01/15 10:41:34;;;;;;;33.42;10.15;;;;;;;5.60;91.62;102433.41;6073310;28;20034;-73
2022/01/15 10:44:32;;;;;;;34.58;10.35;;;;;;;5.43;90.63;102436.00;6075115;28;20511;-74
2022/01/15 10:47:28;;;;;;;41.50;16.98;;;;;;;5.30;90.34;102442.72;6067233;28;20044;-74
2022/01/15 10:50:27;;;;;;;27.63;10.23;;;;;;;5.38;91.54;102432.72;6061540;28;20045;-74
2022/01/15 10:53:55;;;;;;;23.50;9.57;;;;;;;5.31;91.13;102436.53;6068697;28;20101;-73
2022/01/15 10:57:12;;;;;;;26.98;9.13;;;;;;;5.34;91.09;102431.16;6069336;28;20438;-74
2022/01/15 11:00:15;;;;;;;24.55;9.43;;;;;;;5.34;90.36;102424.13;6073745;28;20039;-74
2022/01/15 11:03:14;;;;;;;25.95;8.85;;;;;;;5.49;90.53;102430.44;6074801;28;20391;-73
2022/01/15 11:06:09;;;;;;;26.90;9.93;;;;;;;5.36;90.40;102419.63;6067164;28;20032;-74
2022/01/15 11:09:05;;;;;;;26.20;9.68;;;;;;;5.42;90.35;102407.97;6074685;28;20033;-74
2022/01/15 11:12:00;;;;;;;26.73;9.63;;;;;;;5.35;90.82;102406.56;6073772;28;20069;-74
2022/01/15 11:14:55;;;;;;;27.65;10.00;;;;;;;5.38;90.72;102404.63;6073855;28;20049;-74
2022/01/15 11:17:51;;;;;;;28.60;9.77;;;;;;;5.35;90.75;102396.88;6074305;28;20388;-74
2022/01/15 11:20:49;;;;;;;27.50;9.63;;;;;;;5.54;89.75;102394.25;6074308;28;20485;-74
2022/01/15 11:23:45;;;;;;;32.10;10.88;;;;;;;5.47;91.02;102390.19;6039126;28;1023110;-74
2022/01/15 11:26:40;;;;;;;28.30;10.68;;;;;;;5.53;89.76;102383.78;6075931;28;20049;-74
2022/01/15 11:29:36;;;;;;;30.77;10.95;;;;;;;5.48;89.43;102381.38;6071519;28;20100;-74
2022/01/15 11:32:31;;;;;;;27.50;10.85;;;;;;;5.48;89.71;102376.13;6074974;28;20442;-74
2022/01/15 11:35:38;;;;;;;26.33;10.07;;;;;;;5.47;89.81;102381.44;6073919;28;20040;-74
2022/01/15 11:38:36;;;;;;;25.02;8.55;;;;;;;5.70;90.61;102376.81;6075110;28;20124;-74
2022/01/15 11:41:31;;;;;;;27.88;8.82;;;;;;;5.76;89.49;102376.50;6074360;28;20059;-74
2022/01/15 11:44:29;;;;;;;21.85;8.38;;;;;;;5.64;88.78;102374.47;6068480;28;20034;-74
2022/01/15 11:47:26;;;;;;;26.90;9.50;;;;;;;5.83;89.11;102367.38;6073120;28;20041;-74
2022/01/15 11:50:26;;;;;;;23.50;8.60;;;;;;;5.73;88.35;102366.13;6073912;28;20045;-74
2022/01/15 11:53:40;;;;;;;;;;;;;;;5.76;88.23;102368.59;6070352;28;20030;-74
2022/01/15 11:56:39;;;;;;;20.92;8.25;;;;;;;5.97;88.37;102370.22;6074624;28;19946;-74
2022/01/15 11:59:46;;;;;;;26.65;10.15;;;;;;;5.54;87.47;102370.56;6066285;28;20095;-74
2022/01/15 12:02:44;;;;;;;28.60;9.32;;;;;;;5.58;88.17;102372.13;6074026;28;20535;-74
2022/01/15 12:05:42;;;;;;;26.33;9.23;;;;;;;5.70;88.24;102365.44;6073530;28;20072;-74
2022/01/15 12:08:37;;;;;;;20.90;8.60;;;;;;;5.70;88.44;102365.44;6074579;28;20033;-75
2022/01/15 12:11:33;;;;;;;28.17;9.10;;;;;;;5.69;88.46;102364.56;6069154;28;20044;-74
2022/01/15 12:14:56;;;;;;;24.83;8.10;;;;;;;5.60;88.49;102358.91;6067833;28;20340;-74
2022/01/15 12:18:00;;;;;;;20.20;8.75;;;;;;;5.60;87.40;102358.91;6055622;28;20040;-74
2022/01/15 12:20:55;;;;;;;20.17;8.05;;;;;;;5.59;87.73;102352.78;6055850;28;20037;-73
2022/01/15 12:23:51;;;;;;;22.23;7.95;;;;;;;5.58;87.73;102356.34;6054474;28;20029;-74
2022/01/15 12:27:03;;;;;;;21.07;8.10;;;;;;;5.79;88.39;102350.03;6060573;28;20041;-74
2022/01/15 12:30:11;;;;;;;21.73;8.00;;;;;;;5.72;87.26;102353.03;6065301;28;20030;-74
2022/01/15 12:33:08;;;;;;;26.65;9.20;;;;;;;5.64;86.59;102342.03;6061591;28;20038;-74
2022/01/15 12:36:03;;;;;;;25.80;9.82;;;;;;;5.49;86.40;102343.59;6073551;28;20123;-74
2022/01/15 12:38:59;;;;;;;20.83;7.20;;;;;;;5.40;87.40;102344.06;6069169;28;20037;-74
2022/01/15 12:41:54;;;;;;;21.13;7.07;;;;;;;5.30;85.57;102334.88;6068581;28;20042;-74
2022/01/15 12:44:53;;;;;;;19.98;8.13;;;;;;;5.40;83.60;102336.19;6073055;28;20653;-74
2022/01/15 12:47:49;;;;;;;23.75;8.27;;;;;;;5.38;85.27;102324.88;6073437;28;20049;-74
2022/01/15 12:50:55;;;;;;;16.07;6.47;;;;;;;5.30;84.38;102313.84;6072141;28;20551;-73
2022/01/15 12:53:57;;;;;;;20.42;6.80;;;;;;;5.34;82.92;102308.38;6072405;28;20108;-73
2022/01/15 12:56:52;;;;;;;12.10;4.15;;;;;;;5.35;80.14;102314.50;6072112;28;20032;-73
2022/01/15 12:59:59;;;;;;;11.97;3.87;;;;;;;5.51;78.62;102309.34;6069706;28;20033;-73
2022/01/15 13:03:05;;;;;;;10.38;3.63;;;;;;;5.44;77.14;102308.78;6064096;28;20392;-72
2022/01/15 13:06:02;;;;;;;12.38;3.22;;;;;;;5.40;76.29;102300.22;6071636;28;20029;-73
2022/01/15 13:08:59;;;;;;;7.95;3.38;;;;;;;5.42;76.36;102294.88;6071426;28;20095;-72
2022/01/15 13:11:58;;;;;;;7.90;2.80;;;;;;;5.51;77.00;102291.78;6068137;28;20040;-73
2022/01/15 13:14:53;;;;;;;11.80;3.13;;;;;;;5.75;76.96;102289.72;6063465;28;20670;-73
2022/01/15 13:17:49;;;;;;;8.63;3.00;;;;;;;5.86;76.65;102283.03;6062895;28;20041;-73
2022/01/15 13:20:49;;;;;;;15.00;4.53;;;;;;;5.72;77.50;102277.56;6066468;28;20036;-73
2022/01/15 13:24:01;;;;;;;11.13;3.97;;;;;;;5.84;78.55;102273.47;6064384;28;20388;-73
2022/01/15 13:27:00;;;;;;;10.80;3.58;;;;;;;5.73;76.86;102262.66;6063403;28;20045;-73
2022/01/15 13:29:56;;;;;;;12.32;3.08;;;;;;;5.67;76.91;102255.91;6072450;28;20037;-73
2022/01/15 13:32:56;;;;;;;5.83;2.60;;;;;;;5.71;76.01;102257.44;6071954;28;20037;-73
2022/01/15 13:35:51;;;;;;;8.38;2.63;;;;;;;5.77;75.69;102259.78;6073000;28;20483;-75
2022/01/15 13:38:51;;;;;;;5.80;2.40;;;;;;;5.76;77.10;102255.41;6072785;28;20079;-73
2022/01/15 13:41:46;;;;;;;8.65;3.35;;;;;;;5.69;75.96;102248.78;6071269;28;20037;-73
2022/01/15 13:44:42;;;;;;;7.05;2.72;;;;;;;5.52;77.41;102253.19;6056988;28;20055;-74
2022/01/15 13:47:37;;;;;;;7.63;3.43;;;;;;;5.43;77.39;102251.84;6072269;28;20064;-73
2022/01/15 13:53:49;;;;;;;9.93;2.53;;;;;;;5.47;76.53;102242.88;6072314;28;20033;-74
2022/01/15 13:56:51;;;;;;;11.27;2.22;;;;;;;5.53;76.16;102241.72;6073105;28;20036;-74
2022/01/15 13:59:56;;;;;;;8.20;2.47;;;;;;;5.32;75.94;102233.13;6071715;28;20109;-74
2022/01/15 14:02:54;;;;;;;9.65;2.35;;;;;;;5.36;76.42;102235.50;6072460;28;20021;-73
2022/01/15 14:05:57;;;;;;;9.07;2.70;;;;;;;5.48;75.61;102238.47;6070096;28;20096;-74